Cape Byron Lighthouse, New South Wales

11:59 PM AEST on September 03, 2015 (GMT +1000)
Newrybar | | Change Station
CLOSE
Current Station
Personal Weather Station
Location: Newrybar, NEW SOUTH WALES
Elevation: 489 ft
Nearby Weather Stations

Elev 489 ft 28.71 °S, 153.55 °E | Updated 29 minutes ago

Clear
Clear
56.5 °F
Feels Like 56.5 °F
N
3.0
Wind Variable Wind from West
Gusts 13.0 mph

Today
High -- | Low -- °F
--% Chance of Precip.
Yesterday
High -- | Low -- °F
Precip. -- in
5:58 AM 5:32 PM
Waning Gibbous, 70% visible
Pressure 29.95 in
Visibility 6.2 miles
Clouds
Dew Point 46 °F
Humidity 67%
Rainfall in
Snow Depth Not available.
UV 0.0 out of 12
Pollen Not available.
Air Quality Not available.
Flu Activity Not available.
METAR YBCG 031330Z AUTO 27003KT 9999 // NCD 11/06 Q1014
Pressure 29.95 in
Visibility 6.2 miles
Clouds
Dew Point 46 °F
Humidity 67%
Rainfall in
Snow Depth Not available.
UV 0.0 out of 12
Pollen Not available.
Air Quality Not available.
Flu Activity Not available.
METAR YBCG 031330Z AUTO 27003KT 9999 // NCD 11/06 Q1014

10-Day Weather Forecast

×

Almanac

Astronomy

Sep. 03, 2015 Rise Set
Actual Time
Civil Twilight
Nautical Twilight
Astronomical Twilight
Moon
Length of Visible Light
Length of Day
Tomorrow will be .
, % of the Moon is Illuminated

Today's Extremes

Country Highs Country Lows

Community

WunderPhotos

Upload Photos

1,851,952 photos uploaded!

WunderBlogs® & News

Nearby

Air Quality

  Air Quality AQ Index Pollutant
Not available.

Snow Depth

Station Depth Elevation

Earthquake Activity

City Distance Mag. Time & Date
Minimum magnitude displayed is 2.5.

Coastal Water Temperatures

Place Temperature

Stations

Nearby Weather Stations

Station Location Temp. Windchill Dew Point Humidity Wind Precip. Elev Updated Type